Time;durP1;ratioP1;P1;durP2;ratioP2;P2;SDS_P1;SDS_P2;PMS_P1;PMS_P2;Temp;Humidity;BMP_temperature;BMP_pressure;BME280_temperature;BME280_humidity;BME280_pressure;Samples;Min_cycle;Max_cycle;Signal;HPM_P1;HPM_P2
2021/01/01 00:01:43;;;;;;;;;;;;;;;-1.02;100.00;99170.88;5095123;28;19993;-77
2021/01/01 00:04:10;;;;;;;;;;;;;;;-0.98;100.00;99182.75;5095038;28;19924;-76
2021/01/01 00:06:37;;;;;;;;;;;;;;;-0.92;100.00;99186.84;5076318;28;19932;-76
2021/01/01 00:09:04;;;;;;;;;;;;;;;-0.66;100.00;99195.50;5094910;28;19950;-76
2021/01/01 00:11:30;;;;;;;;;;;;;;;-0.55;100.00;99196.63;5094794;28;19924;-76
2021/01/01 00:13:57;;;;;;;;;;;;;;;-0.52;100.00;99202.25;5094436;28;19931;-76
2021/01/01 00:16:23;;;;;;;;;;;;;;;-0.55;100.00;99202.13;5094702;28;19938;-76
2021/01/01 00:18:50;;;;;;;;;;;;;;;-0.55;100.00;99196.63;5094726;28;19950;-76
2021/01/01 00:21:17;;;;;;;;;;;;;;;-0.49;100.00;99196.06;5094845;28;19924;-76
2021/01/01 00:23:43;;;;;;;;;;;;;;;-0.39;100.00;99201.03;5094652;28;20367;-76
2021/01/01 00:26:13;;;;;;;;;;;;;;;-0.43;100.00;99197.41;5076626;28;19931;-76
2021/01/01 00:28:40;;;;;;;;;;;;;;;-0.53;100.00;99197.09;5076267;28;20018;-76
2021/01/01 00:31:07;;;;;;;;;;;;;;;-0.49;100.00;99198.00;5076417;28;20367;-77
2021/01/01 00:33:33;;;;;;;;;;;;;;;-0.38;100.00;99202.63;5094339;28;19993;-77
2021/01/01 00:36:11;;;;;;;;;;;;;;;-0.27;100.00;99203.75;5094365;28;19924;-75
2021/01/01 00:38:39;;;;;;;;;;;;;;;-0.14;100.00;99213.53;5094422;28;19931;-75
2021/01/01 00:41:06;;;;;;;;;;;;;;;-0.08;100.00;99211.34;5094390;28;19924;-75
2021/01/01 00:43:34;;;;;;;;;;;;;;;-0.06;100.00;99209.84;5093978;28;20402;-75
2021/01/01 00:46:00;;;;;;;;;;;;;;;0.12;100.00;99215.84;5076420;28;19924;-75
2021/01/01 00:48:27;;;;;;;;;;;;;;;0.17;100.00;99212.03;5094276;28;19990;-75
2021/01/01 00:50:53;;;;;;;;;;;;;;;0.57;100.00;99234.69;5094174;28;19935;-75
2021/01/01 00:53:25;;;;;;;;;;;;;;;0.76;100.00;99241.09;5075595;28;19993;-75
2021/01/01 00:55:52;;;;;;;;;;;;;;;0.73;100.00;99241.00;5094085;28;19928;-75
2021/01/01 00:58:18;;;;;;;;;;;;;;;0.98;100.00;99243.22;5093586;28;19967;-75
2021/01/01 01:00:45;;;;;;;;;;;;;;;1.04;100.00;99247.31;5093782;28;20430;-75
2021/01/01 01:03:12;;;;;;;;;;;;;;;1.03;100.00;99248.44;5093901;28;19931;-75
2021/01/01 01:05:38;;;;;;;;;;;;;;;1.42;100.00;99265.91;5093866;28;19924;-74
2021/01/01 01:08:05;;;;;;;;;;;;;;;1.62;100.00;99268.31;5059166;28;19924;-75
2021/01/01 01:10:31;;;;;;;;;;;;;;;1.65;100.00;99267.59;5093788;28;19924;-75
2021/01/01 01:12:58;;;;;;;;;;;;;;;1.83;100.00;99274.31;5093580;28;19924;-74
2021/01/01 01:15:24;;;;;;;;;;;;;;;1.89;100.00;99272.84;5094046;28;20007;-74
2021/01/01 01:17:53;;;;;;;;;;;;;;;1.86;100.00;99273.56;5094012;28;20359;-75
2021/01/01 01:20:20;;;;;;;;;;;;;;;1.84;100.00;99281.44;5093866;28;19953;-75
2021/01/01 01:22:46;;;;;;;;;;;;;;;1.92;100.00;99292.59;5093692;28;20270;-75
2021/01/01 01:25:13;;;;;;;;;;;;;;;1.89;100.00;99292.16;5093741;28;20010;-75
2021/01/01 01:27:39;;;;;;;;;;;;;;;1.92;100.00;99292.59;5075948;28;19931;-74
2021/01/01 01:30:07;;;;;;;;;;;;;;;1.94;100.00;99291.06;5093717;28;20480;-75
2021/01/01 01:32:33;;;;;;;;;;;;;;;1.99;100.00;99303.75;5093650;28;19928;-75
2021/01/01 01:35:00;;;;;;;;;;;;;;;2.03;100.00;99299.91;5093649;28;19925;-75
2021/01/01 01:37:26;;;;;;;;;;;;;;;2.07;100.00;99305.50;5093701;28;20349;-75
2021/01/01 01:39:53;;;;;;;;;;;;;;;2.03;100.00;99301.91;5075495;28;19924;-75
2021/01/01 01:42:20;;;;;;;;;;;;;;;1.98;100.00;99302.19;5093587;28;19924;-75
2021/01/01 01:44:46;;;;;;;;;;;;;;;1.88;100.00;99306.28;5093491;28;19932;-75
2021/01/01 01:47:16;;;;;;;;;;;;;;;1.77;100.00;99291.50;5093735;28;19924;-75
2021/01/01 01:49:42;;;;;;;;;;;;;;;1.65;100.00;99300.66;5093535;28;19924;-75
2021/01/01 01:52:09;;;;;;;;;;;;;;;1.63;100.00;99297.50;5093541;28;19928;-75
2021/01/01 01:54:37;;;;;;;;;;;;;;;1.74;100.00;99314.25;5093190;28;19924;-75
2021/01/01 01:57:04;;;;;;;;;;;;;;;2.01;100.00;99313.28;5093376;28;20432;-75
2021/01/01 01:59:31;;;;;;;;;;;;;;;2.26;100.00;99333.13;5093484;28;19924;-75
2021/01/01 02:01:57;;;;;;;;;;;;;;;2.43;100.00;99338.19;5093429;28;20394;-75
2021/01/01 02:04:24;;;;;;;;;;;;;;;2.56;100.00;99359.72;5109079;28;19989;-74
2021/01/01 02:06:50;;;;;;;;;;;;;;;2.64;100.00;99360.66;5078876;28;19928;-74
2021/01/01 02:09:17;;;;;;;;;;;;;;;2.65;100.00;99373.31;5097104;28;20339;-75
2021/01/01 02:11:48;;;;;;;;;;;;;;;2.70;100.00;99362.78;5097190;28;19959;-74
2021/01/01 02:14:16;;;;;;;;;;;;;;;2.71;100.00;99369.09;5097021;28;19923;-74
2021/01/01 02:16:43;;;;;;;;;;;;;;;2.68;100.00;99364.31;5097142;28;19924;-75
2021/01/01 02:19:12;;;;;;;;;;;;;;;2.65;100.00;99365.81;5062144;28;19924;-74
2021/01/01 02:21:40;;;;;;;;;;;;;;;2.67;100.00;99373.75;5096978;28;19924;-74
2021/01/01 02:24:08;;;;;;;;;;;;;;;2.64;100.00;99368.94;5096625;28;20019;-74
2021/01/01 02:26:34;;;;;;;;;;;;;;;2.62;100.00;99371.28;5095744;28;19924;-74
2021/01/01 02:29:01;;;;;;;;;;;;;;;2.59;100.00;99363.75;5078920;28;20392;-75
2021/01/01 02:31:28;;;;;;;;;;;;;;;2.61;100.00;99372.44;5096830;28;19924;-74
2021/01/01 02:33:55;;;;;;;;;;;;;;;2.65;100.00;99376.84;5096648;28;20371;-74
2021/01/01 02:36:21;;;;;;;;;;;;;;;2.65;100.00;99379.63;5096645;28;19932;-75
2021/01/01 02:38:48;;;;;;;;;;;;;;;2.61;100.00;99376.00;5078341;28;19931;-74
2021/01/01 02:41:15;;;;;;;;;;;;;;;2.65;100.00;99376.09;5078578;28;19924;-75
2021/01/01 02:43:41;;;;;;;;;;;;;;;2.62;100.00;99376.81;5096637;28;19924;-74
2021/01/01 02:46:08;;;;;;;;;;;;;;;2.61;100.00;99376.00;5078390;28;19924;-74
2021/01/01 02:48:34;;;;;;;;;;;;;;;2.58;100.00;99368.44;5096384;28;20061;-75
2021/01/01 02:51:00;;;;;;;;;;;;;;;2.54;100.00;99372.28;5096558;28;19924;-74
2021/01/01 02:53:28;;;;;;;;;;;;;;;2.53;100.00;99373.47;5078120;28;19924;-74
2021/01/01 02:55:54;;;;;;;;;;;;;;;2.54;100.00;99369.53;5096249;28;20294;-74
2021/01/01 02:58:21;;;;;;;;;;;;;;;2.54;100.00;99367.59;5096265;28;20019;-74
2021/01/01 03:00:48;;;;;;;;;;;;;;;2.56;100.00;99372.75;5096249;28;19924;-74
2021/01/01 03:03:15;;;;;;;;;;;;;;;2.61;100.00;99373.25;5096326;28;20035;-74
2021/01/01 03:05:42;;;;;;;;;;;;;;;2.64;100.00;99385.50;5096183;28;19943;-74
2021/01/01 03:08:08;;;;;;;;;;;;;;;2.67;100.00;99379.25;5095534;28;19931;-74
2021/01/01 03:10:35;;;;;;;;;;;;;;;2.68;100.00;99380.88;5096042;28;19947;-74
2021/01/01 03:13:01;;;;;;;;;;;;;;;2.67;100.00;99382.81;5095972;28;19924;-74
2021/01/01 03:15:28;;;;;;;;;;;;;;;2.62;100.00;99383.09;5077457;28;19946;-74
2021/01/01 03:17:55;;;;;;;;;;;;;;;2.65;100.00;99367.81;5077841;28;20337;-74
2021/01/01 03:20:21;;;;;;;;;;;;;;;2.62;100.00;99372.06;5096068;28;19939;-74
2021/01/01 03:22:48;;;;;;;;;;;;;;;2.70;100.00;99387.63;5095480;28;20387;-74
2021/01/01 03:25:15;;;;;;;;;;;;;;;2.72;100.00;99382.53;5095693;28;20392;-74
2021/01/01 03:27:42;;;;;;;;;;;;;;;2.78;100.00;99378.31;5095727;28;19931;-74
2021/01/01 03:30:09;;;;;;;;;;;;;;;2.82;100.00;99381.13;5095604;28;19924;-74
2021/01/01 03:32:36;;;;;;;;;;;;;;;2.85;100.00;99391.44;5095801;28;19924;-74
2021/01/01 03:35:06;;;;;;;;;;;;;;;2.82;100.00;99381.94;5077643;28;19925;-74
2021/01/01 03:37:34;;;;;;;;;;;;;;;2.76;100.00;99380.63;5095333;28;19932;-74
2021/01/01 03:40:01;;;;;;;;;;;;;;;2.81;100.00;99385.06;5095495;28;20383;-74
2021/01/01 03:42:27;;;;;;;;;;;;;;;2.77;100.00;99375.94;5095418;28;20518;-74
2021/01/01 03:44:54;;;;;;;;;;;;;;;2.87;100.00;99378.91;5095432;28;19931;-74
2021/01/01 03:47:21;;;;;;;;;;;;;;;2.87;100.00;99389.13;5095411;28;19924;-74
2021/01/01 03:49:47;;;;;;;;;;;;;;;2.91;100.00;99384.47;5095174;28;20431;-74
2021/01/01 03:52:14;;;;;;;;;;;;;;;2.94;100.00;99392.03;5095003;28;20452;-74
2021/01/01 03:54:40;;;;;;;;;;;;;;;2.91;100.00;99387.22;5095280;28;19923;-74
2021/01/01 03:57:07;;;;;;;;;;;;;;;2.95;100.00;99379.81;5095195;28;20395;-74
2021/01/01 03:59:33;;;;;;;;;;;;;;;2.95;100.00;99396.38;5095108;28;19924;-74
2021/01/01 04:02:00;;;;;;;;;;;;;;;2.98;100.00;99390.13;5095081;28;19924;-74
2021/01/01 04:04:27;;;;;;;;;;;;;;;2.96;100.00;99395.22;5095088;28;19939;-74
2021/01/01 04:06:53;;;;;;;;;;;;;;;2.89;100.00;99379.31;5094469;28;19953;-74
2021/01/01 04:09:20;;;;;;;;;;;;;;;2.82;100.00;99384.69;5077033;28;19924;-74
2021/01/01 04:11:46;;;;;;;;;;;;;;;2.79;100.00;99393.72;5076848;28;19924;-74
2021/01/01 04:14:12;;;;;;;;;;;;;;;2.78;100.00;99396.84;5095168;28;19928;-74
2021/01/01 04:16:43;;;;;;;;;;;;;;;2.78;100.00;99405.09;5110747;28;20359;-74
2021/01/01 04:19:09;;;;;;;;;;;;;;;2.79;100.00;99403.94;5094844;28;20379;-74
2021/01/01 04:21:36;;;;;;;;;;;;;;;2.76;100.00;99405.47;5094609;28;19924;-74
2021/01/01 04:24:02;;;;;;;;;;;;;;;2.75;100.00;99403.06;5094658;28;19924;-74
2021/01/01 04:26:29;;;;;;;;;;;;;;;2.73;100.00;99400.69;5076802;28;20101;-74
2021/01/01 04:28:55;;;;;;;;;;;;;;;2.74;100.00;99409.75;5075723;28;20281;-74
2021/01/01 04:31:22;;;;;;;;;;;;;;;2.71;100.00;99411.28;5094550;28;20391;-74
2021/01/01 04:33:48;;;;;;;;;;;;;;;2.74;100.00;99409.75;5094295;28;20291;-74
2021/01/01 04:36:15;;;;;;;;;;;;;;;2.73;100.00;99417.25;5076575;28;19925;-74
2021/01/01 04:38:41;;;;;;;;;;;;;;;2.72;100.00;99414.84;5094547;28;19924;-74
2021/01/01 04:41:09;;;;;;;;;;;;;;;2.71;100.00;99413.25;5094439;28;19969;-74
2021/01/01 04:43:36;;;;;;;;;;;;;;;2.74;100.00;99418.03;5076292;28;19958;-74
2021/01/01 04:46:03;;;;;;;;;;;;;;;2.71;100.00;99424.28;5076413;28;19931;-74
2021/01/01 04:48:30;;;;;;;;;;;;;;;2.73;100.00;99427.47;5094132;28;19969;-74
2021/01/01 04:50:57;;;;;;;;;;;;;;;2.74;100.00;99438.13;5094277;28;19924;-74
2021/01/01 04:53:24;;;;;;;;;;;;;;;2.76;100.00;99441.34;5094261;28;19954;-74
2021/01/01 04:55:52;;;;;;;;;;;;;;;2.81;100.00;99438.31;5094289;28;19952;-74
2021/01/01 04:58:19;;;;;;;;;;;;;;;2.84;100.00;99442.28;5094276;28;19931;-74
2021/01/01 05:00:46;;;;;;;;;;;;;;;2.84;100.00;99447.81;5094486;28;19931;-74
2021/01/01 05:03:12;;;;;;;;;;;;;;;2.85;100.00;99441.94;5093901;28;20023;-74
2021/01/01 05:05:45;;;;;;;;;;;;;;;2.84;100.00;99445.84;5094149;28;19924;-74
2021/01/01 05:08:12;;;;;;;;;;;;;;;2.91;100.00;99450.69;5076213;28;19931;-74
2021/01/01 05:10:39;;;;;;;;;;;;;;;2.91;100.00;99461.75;5076161;28;19924;-74
2021/01/01 05:13:12;;;;;;;;;;;;;;;2.93;100.00;99453.91;5094061;28;19924;-74
2021/01/01 05:15:39;;;;;;;;;;;;;;;2.89;100.00;99458.56;5076286;28;20023;-74
2021/01/01 05:18:18;;;;;;;;;;;;;;;2.92;100.00;99464.13;5093733;28;19931;-74
2021/01/01 05:20:47;;;;;;;;;;;;;;;2.88;100.00;99456.94;5076147;28;19924;-74
2021/01/01 05:23:18;;;;;;;;;;;;;;;2.86;100.00;99456.53;5094007;28;19951;-74
2021/01/01 05:25:44;;;;;;;;;;;;;;;2.88;100.00;99457.75;5093020;28;19935;-74
2021/01/01 05:28:12;;;;;;;;;;;;;;;2.83;100.00;99455.28;5094046;28;19985;-74
2021/01/01 05:30:38;;;;;;;;;;;;;;;2.85;100.00;99452.16;5093736;28;19925;-74
2021/01/01 05:33:06;;;;;;;;;;;;;;;2.81;100.00;99446.59;5093194;28;19924;-74
2021/01/01 05:35:33;;;;;;;;;;;;;;;2.79;100.00;99448.91;5093806;28;20019;-74
2021/01/01 05:38:16;;;;;;;;;;;;;;;2.83;100.00;99451.75;5093449;28;19924;-74
2021/01/01 05:40:46;;;;;;;;;;;;;;;2.83;100.00;99448.97;5097505;28;20015;-74
2021/01/01 05:43:23;;;;;;;;;;;;;;;2.89;100.00;99477.88;5097954;28;20314;-74
2021/01/01 05:45:50;;;;;;;;;;;;;;;2.93;100.00;99467.72;5097837;28;20391;-74
2021/01/01 05:48:17;;;;;;;;;;;;;;;2.91;100.00;99467.25;5079531;28;19933;-74
2021/01/01 05:50:45;;;;;;;;;;;;;;;2.86;100.00;99464.81;5097773;28;19935;-74
2021/01/01 05:53:15;;;;;;;;;;;;;;;2.88;100.00;99479.03;5097694;28;19924;-74
2021/01/01 05:55:43;;;;;;;;;;;;;;;2.91;100.00;99462.56;5097770;28;19969;-74
2021/01/01 05:58:19;;;;;;;;;;;;;;;2.92;100.00;99468.88;5097583;28;20383;-74
2021/01/01 06:00:48;;;;;;;;;;;;;;;2.91;100.00;99470.03;5097277;28;19935;-74
2021/01/01 06:03:25;;;;;;;;;;;;;;;2.87;100.00;99478.25;5097543;28;20358;-74
2021/01/01 06:05:53;;;;;;;;;;;;;;;2.90;100.00;99468.44;5097473;28;19946;-74
2021/01/01 06:08:23;;;;;;;;;;;;;;;2.87;100.00;99467.22;5113189;28;20015;-74
2021/01/01 06:10:50;;;;;;;;;;;;;;;2.85;100.00;99471.47;5097459;28;19924;-74
2021/01/01 06:13:18;;;;;;;;;;;;;;;2.82;100.00;99480.47;5097150;28;19931;-74
2021/01/01 06:15:48;;;;;;;;;;;;;;;2.87;100.00;99471.94;5097039;28;20287;-74
2021/01/01 06:18:14;;;;;;;;;;;;;;;2.83;100.00;99485.63;5097244;28;19928;-74
2021/01/01 06:20:41;;;;;;;;;;;;;;;2.85;100.00;99474.25;5097232;28;19928;-74
2021/01/01 06:23:13;;;;;;;;;;;;;;;2.88;100.00;99490.06;5097118;28;19946;-74
2021/01/01 06:25:40;;;;;;;;;;;;;;;2.91;100.00;99490.16;5097268;28;19924;-74
2021/01/01 06:28:06;;;;;;;;;;;;;;;2.93;100.00;99496.13;5096989;28;19931;-74
2021/01/01 06:30:34;;;;;;;;;;;;;;;2.94;100.00;99505.22;5078568;28;19932;-74
2021/01/01 06:33:06;;;;;;;;;;;;;;;2.92;100.00;99502.78;5096986;28;19931;-74
2021/01/01 06:35:41;;;;;;;;;;;;;;;2.91;100.00;99497.63;5096809;28;19938;-74
2021/01/01 06:38:07;;;;;;;;;;;;;;;2.84;100.00;99500.25;5096873;28;19924;-74
2021/01/01 06:40:35;;;;;;;;;;;;;;;2.85;100.00;99502.66;5096954;28;19928;-74
2021/01/01 06:43:03;;;;;;;;;;;;;;;2.90;100.00;99513.41;5096679;28;19924;-74
2021/01/01 06:45:40;;;;;;;;;;;;;;;2.89;100.00;99513.78;5112037;28;19947;-74
2021/01/01 06:48:19;;;;;;;;;;;;;;;2.87;100.00;99516.91;5096636;28;19928;-74
2021/01/01 06:50:49;;;;;;;;;;;;;;;2.89;100.00;99530.34;5095714;28;19961;-74
2021/01/01 06:53:16;;;;;;;;;;;;;;;2.89;100.00;99522.06;5096367;28;20012;-74
2021/01/01 06:55:46;;;;;;;;;;;;;;;2.92;100.00;99530.38;5078547;28;20015;-74
2021/01/01 06:58:14;;;;;;;;;;;;;;;2.93;100.00;99542.25;5096472;28;20371;-74
2021/01/01 07:00:49;;;;;;;;;;;;;;;2.94;100.00;99546.63;5078028;28;19931;-74
2021/01/01 07:03:32;;;;;;;;;;;;;;;2.98;100.00;99545.53;5078450;28;19927;-74
2021/01/01 07:06:02;;;;;;;;;;;;;;;3.06;100.00;99554.75;5096214;28;19924;-74
2021/01/01 07:11:07;;;;;;;;;;;;;;;3.13;100.00;99552.16;5096111;28;19924;-74
2021/01/01 07:13:40;;;;;;;;;;;;;;;3.17;100.00;99550.25;5061106;28;20801;-74
2021/01/01 07:16:07;;;;;;;;;;;;;;;3.22;100.00;99558.25;5096016;28;19977;-74
2021/01/01 07:18:34;;;;;;;;;;;;;;;3.23;100.00;99559.84;5095986;28;20022;-74
2021/01/01 07:21:01;;;;;;;;;;;;;;;3.23;100.00;99554.31;5096022;28;19924;-74
2021/01/01 07:23:28;;;;;;;;;;;;;;;3.31;100.00;99558.84;5095815;28;19959;-74
2021/01/01 07:25:55;;;;;;;;;;;;;;;3.31;100.00;99553.31;5095758;28;19973;-74
2021/01/01 07:28:25;;;;;;;;;;;;;;;3.34;100.00;99544.28;5095671;28;20010;-75
2021/01/01 07:30:53;;;;;;;;;;;;;;;3.39;100.00;99544.00;5077831;28;19969;-74
2021/01/01 07:33:23;;;;;;;;;;;;;;;3.37;100.00;99527.00;5094163;28;19924;-75
2021/01/01 07:36:00;;;;;;;;;;;;;;;3.40;100.00;99523.50;5095619;28;20284;-75
2021/01/01 07:38:28;;;;;;;;;;;;;;;3.43;100.00;99520.00;5095591;28;19931;-74
2021/01/01 07:40:55;;;;;;;;;;;;;;;3.43;100.00;99525.53;5095569;28;19928;-75
2021/01/01 07:43:22;;;;;;;;;;;;;;;3.46;100.00;99524.81;5095308;28;19931;-78
2021/01/01 07:45:48;;;;;;;;;;;;;;;3.48;100.00;99525.25;5077387;28;19947;-74
2021/01/01 07:48:15;;;;;;;;;;;;;;;3.49;100.00;99532.34;5076542;28;19924;-74
2021/01/01 07:50:41;;;;;;;;;;;;;;;3.51;100.00;99519.75;5094747;28;19986;-74
2021/01/01 07:53:11;;;;;;;;;;;;;;;3.53;100.00;99505.59;5076766;28;19924;-74
2021/01/01 07:55:38;;;;;;;;;;;;;;;3.51;100.00;99494.13;5094576;28;20015;-74
2021/01/01 07:58:06;;;;;;;;;;;;;;;3.48;100.00;99492.09;5094200;28;20337;-74
2021/01/01 08:00:33;;;;;;;;;;;;;;;3.45;100.00;99481.78;5094384;28;19924;-74
2021/01/01 08:03:00;;;;;;;;;;;;;;;3.43;100.00;99468.31;5094252;28;19931;-74
2021/01/01 08:05:27;;;;;;;;;;;;;;;3.47;100.00;99480.22;5093729;28;20284;-73
2021/01/01 08:07:55;;;;;;;;;;;;;;;3.46;100.00;99467.59;5097559;28;19960;-74
2021/01/01 08:10:31;;;;;;;;;;;;;;;3.41;100.00;99453.25;5072400;28;19925;-74
2021/01/01 08:12:58;;;;;;;;;;;;;;;3.38;100.00;99459.53;5073626;28;19925;-74
2021/01/01 08:15:28;;;;;;;;;;;;;;;3.36;100.00;99453.59;5073861;28;19935;-74
2021/01/01 08:17:54;;;;;;;;;;;;;;;3.29;100.00;99440.44;5074035;28;19928;-74
2021/01/01 08:20:21;;;;;;;;;;;;;;;3.26;100.00;99432.06;5073790;28;19960;-74
2021/01/01 08:22:48;;;;;;;;;;;;;;;3.17;100.00;99437.03;5073752;28;19924;-74
2021/01/01 08:25:16;;;;;;;;;;;;;;;3.16;100.00;99435.44;5073758;28;19928;-74
2021/01/01 08:27:43;;;;;;;;;;;;;;;3.17;100.00;99432.31;5073322;28;19975;-74
2021/01/01 08:30:10;;;;;;;;;;;;;;;3.19;100.00;99427.22;5073365;28;20145;-74
2021/01/01 08:32:39;;;;;;;;;;;;;;;3.26;100.00;99424.59;5073750;28;19978;-74
2021/01/01 08:35:08;;;;;;;;;;;;;;;3.26;100.00;99426.56;5073746;28;19925;-74
2021/01/01 08:37:35;;;;;;;;;;;;;;;3.25;100.00;99419.44;5073346;28;19933;-74
2021/01/01 08:40:09;;;;;;;;;;;;;;;3.24;100.00;99423.38;5055886;28;19928;-74
2021/01/01 08:42:41;;;;;;;;;;;;;;;3.27;100.00;99422.66;5105700;28;20030;-74
2021/01/01 08:45:09;;;;;;;;;;;;;;;3.34;100.00;99420.00;5106080;28;19932;-74
2021/01/01 08:47:39;;;;;;;;;;;;;;;3.31;100.00;99415.22;5072207;28;19925;-74
2021/01/01 08:50:23;;;;;;;;;;;;;;;3.24;100.00;99398.53;5072265;28;19924;-74
2021/01/01 08:53:00;;;;;;;;;;;;;;;3.27;100.00;99403.31;5072211;28;20353;-74
2021/01/01 08:55:29;;;;;;;;;;;;;;;3.26;100.00;99412.75;5073300;28;20310;-75
2021/01/01 08:58:05;;;;;;;;;;;;;;;3.27;100.00;99420.66;5073281;28;19931;-76
2021/01/01 09:00:31;;;;;;;;;;;;;;;3.32;100.00;99420.38;5073243;28;20284;-76
2021/01/01 09:02:58;;;;;;;;;;;;;;;3.44;100.00;99430.44;5073135;28;19924;-75
2021/01/01 09:05:28;;;;;;;;;;;;;;;3.47;100.00;99429.69;5073164;28;19924;-76
2021/01/01 09:08:11;;;;;;;;;;;;;;;3.50;100.00;99428.97;5071859;28;19924;-76
2021/01/01 09:10:41;;;;;;;;;;;;;;;3.53;100.00;99430.97;5072820;28;19970;-76
2021/01/01 09:13:15;;;;;;;;;;;;;;;3.55;100.00;99426.72;5072917;28;20322;-77
2021/01/01 09:15:42;;;;;;;;;;;;;;;3.60;100.00;99436.66;5062239;28;19924;-77
2021/01/01 09:18:10;;;;;;;;;;;;;;;3.67;100.00;99439.53;5065911;28;19925;-77
2021/01/01 09:23:54;;;;;;;;;;;;;;;3.63;100.00;99433.16;5060603;28;19925;-76
2021/01/01 09:26:24;;;;;;;;;;;;;;;3.63;100.00;99430.38;5065579;28;19924;-76
2021/01/01 09:29:04;;;;;;;;;;;;;;;3.58;100.00;99436.22;5067186;28;19931;-76
2021/01/01 09:31:32;;;;;;;;;;;;;;;3.64;100.00;99429.22;5067683;28;20001;-76
2021/01/01 09:34:08;;;;;;;;;;;;;;;3.67;100.00;99434.00;5067939;28;19925;-81
2021/01/01 09:36:37;;;;;;;;;;;;;;;3.77;100.00;99436.16;5068273;28;19925;-77
2021/01/01 09:39:06;;;;;;;;;;;;;;;3.83;100.00;99433.88;5067237;28;19930;-75
2021/01/01 09:41:33;;;;;;;;;;;;;;;3.79;100.00;99430.28;5066876;28;20029;-78
2021/01/01 09:44:00;;;;;;;;;;;;;;;3.82;100.00;99435.84;5050249;28;19925;-79
2021/01/01 09:46:27;;;;;;;;;;;;;;;3.89;100.00;99435.97;5100330;28;20376;-79
2021/01/01 09:48:56;;;;;;;;;;;;;;;3.94;100.00;99438.41;5054453;28;19989;-78
2021/01/01 09:51:22;;;;;;;;;;;;;;;3.88;100.00;99434.34;5105579;28;19964;-80
2021/01/01 09:53:49;;;;;;;;;;;;;;;3.79;100.00;99436.56;5055397;28;19924;-78
2021/01/01 09:56:15;;;;;;;;;;;;;;;3.77;100.00;99430.63;5073592;28;19932;-78
2021/01/01 09:58:42;;;;;;;;;;;;;;;3.74;100.00;99428.63;5064998;28;19940;-74
2021/01/01 10:01:08;;;;;;;;;;;;;;;3.65;100.00;99431.59;5057206;28;19986;-75
2021/01/01 10:03:35;;;;;;;;;;;;;;;3.66;100.00;99427.66;5066651;28;19964;-75
2021/01/01 10:06:01;;;;;;;;;;;;;;;3.68;100.00;99427.31;5069033;28;19940;-74
2021/01/01 10:08:27;;;;;;;;;;;;;;;3.69;100.00;99424.19;5082367;28;19924;-75
2021/01/01 10:10:56;;;;;;;;;;;;;;;3.74;100.00;99425.84;5089411;28;20379;-75
2021/01/01 10:13:23;;;;;;;;;;;;;;;3.65;100.00;99426.09;5089411;28;19924;-76
2021/01/01 10:15:49;;;;;;;;;;;;;;;3.63;100.00;99416.56;5086307;28;19924;-75
2021/01/01 10:18:15;;;;;;;;;;;;;;;3.63;100.00;99422.09;5078104;28;19931;-74
2021/01/01 10:20:42;;;;;;;;;;;;;;;3.63;100.00;99424.88;5088888;28;19925;-74
2021/01/01 10:23:08;;;;;;;;;;;;;;;3.67;100.00;99429.28;5088945;28;19950;-75
2021/01/01 10:25:35;;;;;;;;;;;;;;;3.72;100.00;99430.94;5071879;28;19924;-74
2021/01/01 10:28:01;;;;;;;;;;;;;;;3.75;100.00;99432.97;5074630;28;19924;-74
2021/01/01 10:30:28;;;;;;;;;;;;;;;3.71;100.00;99440.41;5089955;28;20299;-74
2021/01/01 10:32:55;;;;;;;;;;;;;;;3.70;100.00;99431.31;5124809;27;19928;-72
2021/01/01 10:35:21;;;;;;;;;;;;;;;3.72;100.00;99431.75;5091936;28;20383;-73
2021/01/01 10:37:50;;;;;;;;;;;;;;;3.74;100.00;99439.66;5092646;28;19924;-76
2021/01/01 10:40:17;;;;;;;;;;;;;;;3.80;100.00;99443.72;5090905;28;19981;-75
2021/01/01 10:42:44;;;;;;;;;;;;;;;3.75;100.00;99441.25;5091563;28;20348;-75
2021/01/01 10:45:13;;;;;;;;;;;;;;;3.77;100.00;99429.84;5096221;28;19977;-78
2021/01/01 10:47:40;;;;;;;;;;;;;;;3.86;100.00;99450.53;5129356;27;19924;-76
2021/01/01 10:50:08;;;;;;;;;;;;;;;3.78;100.00;99442.47;5109407;28;19924;-73
2021/01/01 10:52:34;;;;;;;;;;;;;;;3.67;100.00;99445.88;5087466;28;20394;-73
2021/01/01 10:55:02;;;;;;;;;;;;;;;3.72;100.00;99451.09;5078140;28;19931;-76
2021/01/01 10:57:29;;;;;;;;;;;;;;;3.72;100.00;99459.38;5128949;27;19967;-75
2021/01/01 10:59:55;;;;;;;;;;;;;;;3.73;100.00;99458.22;5095060;28;20293;-75
2021/01/01 11:02:21;;;;;;;;;;;;;;;3.75;100.00;99466.13;5095129;28;20340;-77
2021/01/01 11:04:48;;;;;;;;;;;;;;;3.84;100.00;99469.44;5095229;28;19924;-77
2021/01/01 11:07:14;;;;;;;;;;;;;;;3.92;100.00;99476.69;5095903;28;19978;-78
2021/01/01 11:09:41;;;;;;;;;;;;;;;3.93;100.00;99474.72;5061544;28;20371;-77
2021/01/01 11:12:08;;;;;;;;;;;;;;;3.94;100.00;99477.09;5096097;28;20008;-78
2021/01/01 12:26:05;;;;;;;;;;;;;;;3.85;100.00;99518.03;5127743;27;19927;-78
2021/01/01 12:28:34;;;;;;;;;;;;;;;3.86;100.00;99508.59;5094664;28;19924;-78
2021/01/01 12:31:01;;;;;;;;;;;;;;;3.91;100.00;99511.03;5094556;28;19924;-79
2021/01/01 12:33:28;;;;;;;;;;;;;;;3.83;100.00;99501.03;5094292;28;19925;-78
2021/01/01 12:35:54;;;;;;;;;;;;;;;3.82;100.00;99513.22;5093278;28;19924;-78
2021/01/01 12:38:21;;;;;;;;;;;;;;;3.89;100.00;99502.31;5093390;28;19924;-78
2021/01/01 12:40:47;;;;;;;;;;;;;;;4.01;100.00;99509.63;5094498;28;19924;-78
2021/01/01 12:43:14;;;;;;;;;;;;;;;3.93;100.00;99513.41;5093228;28;19931;-78
2021/01/01 12:45:41;;;;;;;;;;;;;;;4.02;100.00;99512.00;5094293;28;19930;-78
2021/01/01 12:48:13;;;;;;;;;;;;;;;4.05;100.00;99511.28;5093683;28;19924;-79
2021/01/01 12:50:40;;;;;;;;;;;;;;;4.11;100.00;99520.84;5093952;28;19924;-78
2021/01/01 12:53:06;;;;;;;;;;;;;;;4.12;100.00;99511.38;5094255;28;19957;-79
2021/01/01 12:55:34;;;;;;;;;;;;;;;4.13;100.00;99512.19;5094382;28;20453;-79
2021/01/01 12:58:03;;;;;;;;;;;;;;;4.00;100.00;99516.31;5094287;28;19928;-78
2021/01/01 13:00:29;;;;;;;;;;;;;;;4.03;100.00;99515.59;5094282;28;20360;-80
2021/01/01 13:02:56;;;;;;;;;;;;;;;4.08;100.00;99518.03;5093179;28;20009;-80
2021/01/01 13:05:22;;;;;;;;;;;;;;;4.01;100.00;99515.97;5093119;28;19978;-81
2021/01/01 13:07:49;;;;;;;;;;;;;;;4.01;100.00;99515.97;5110081;28;19924;-81
2021/01/01 13:10:17;;;;;;;;;;;;;;;3.97;100.00;99520.59;5076539;28;20377;-80
2021/01/01 13:12:44;;;;;;;;;;;;;;;3.94;100.00;99510.28;5093294;28;20311;-80
2021/01/01 13:15:10;;;;;;;;;;;;;;;3.94;100.00;99517.81;5093190;28;19924;-80
2021/01/01 13:17:37;;;;;;;;;;;;;;;3.94;100.00;99532.41;5093015;28;19925;-80
2021/01/01 13:20:04;;;;;;;;;;;;;;;4.00;100.00;99542.00;5094727;28;20355;-80
2021/01/01 13:22:30;;;;;;;;;;;;;;;3.92;100.00;99534.75;5110084;28;20015;-80
2021/01/01 13:24:57;;;;;;;;;;;;;;;3.92;100.00;99537.53;5110276;28;20302;-80
2021/01/01 13:27:25;;;;;;;;;;;;;;;3.95;100.00;99547.03;5093291;28;20279;-81
2021/01/01 13:29:53;;;;;;;;;;;;;;;3.96;100.00;99541.13;5094217;28;19931;-80
2021/01/01 13:32:19;;;;;;;;;;;;;;;4.01;100.00;99542.78;5092548;28;20313;-80
2021/01/01 13:34:46;;;;;;;;;;;;;;;3.98;100.00;99543.53;5093328;28;19928;-80
2021/01/01 13:37:13;;;;;;;;;;;;;;;3.95;100.00;99545.09;5076017;28;20325;-80
2021/01/01 13:39:40;;;;;;;;;;;;;;;3.95;100.00;99547.03;5076526;28;20416;-81
2021/01/01 13:42:10;;;;;;;;;;;;;;;3.95;100.00;99556.13;5094093;28;19924;-80
2021/01/01 13:44:38;;;;;;;;;;;;;;;4.04;100.00;99553.94;5076429;28;19924;-80
2021/01/01 13:47:05;;;;;;;;;;;;;;;4.00;100.00;99555.81;5076201;28;19970;-81
2021/01/01 13:49:31;;;;;;;;;;;;;;;4.04;100.00;99551.16;5092881;28;19924;-80
2021/01/01 13:52:00;;;;;;;;;;;;;;;4.10;100.00;99557.19;5094187;28;19925;-80
2021/01/01 13:54:27;;;;;;;;;;;;;;;4.01;100.00;99551.91;5079287;28;19931;-80
2021/01/01 13:56:54;;;;;;;;;;;;;;;4.03;100.00;99568.91;5076234;28;19925;-81
2021/01/01 13:59:20;;;;;;;;;;;;;;;4.02;100.00;99556.25;5075770;28;19964;-80
2021/01/01 14:01:47;;;;;;;;;;;;;;;4.03;100.00;99560.59;5046664;28;19931;-80
2021/01/01 14:04:13;;;;;;;;;;;;;;;3.99;100.00;99557.00;5063054;28;20386;-80
2021/01/01 14:06:40;;;;;;;;;;;;;;;4.03;100.00;99559.84;5079628;28;19930;-80